Flight Track Log - Related Links

Times and Time Zones

All times are in EDT time to prevent confusion due to time zone crossing. See the ASQ5929 flight status page for this flight to view local times or setup timezone preferences in your user account.

Time Position Orientation Groundspeed Altitude Reporting Facility
EDT Latitude Longitude Course Direction KTS MPH feet Rate Location/Type
Fri 05:10:00 PM 24.8797 -97.2304 55° Northeast  Level Estimated
Fri 05:11:00 PM 24.9907 -97.1912 49° Northeast  Level Estimated
Fri 05:12:00 PM 25.1016 -97.1519 49° Northeast  Level Estimated
Fri 05:13:00 PM 25.2126 -97.1126 49° Northeast  Level Estimated
Fri 05:14:00 PM 25.3235 -97.0732 49° Northeast  Level Estimated
Fri 05:15:00 PM 25.4345 -97.0337 49° Northeast  Level Estimated
Fri 05:16:00 PM 25.5454 -96.9941 49° Northeast  Level Estimated
Fri 05:16:06 PM 25.2958 -97.5747 49° Northeast 452 520 37,000  Level Houston Center
Fri 05:17:00 PM 25.6563 -96.9545 49° Northeast  Level Estimated
Fri 05:17:08 PM 25.4450 -97.5592 North 449 517 37,000  Level Houston Center
Fri 05:18:00 PM 25.7672 -96.9148 49° Northeast  Level Estimated
Fri 05:18:10 PM 25.5767 -97.5439 North 448 516 37,000  Level Houston Center
Fri 05:19:00 PM 25.8781 -96.8750 49° Northeast  Level Estimated
Fri 05:19:12 PM 25.7008 -97.5325 North 449 517 37,000  Level Houston Center
Fri 05:20:00 PM 25.9890 -96.8352 49° Northeast  Level Estimated
Fri 05:20:14 PM 25.8342 -97.5275 North 447 514 37,000  Level Houston Center
Fri 05:21:00 PM 26.0998 -96.7952 49° Northeast  Level Estimated
Fri 05:21:16 PM 25.9594 -97.5219 North 449 517 37,000  Level Houston Center
Fri 05:22:18 PM 26.0939 -97.5025 North 461 531 37,000  Level Houston Center
Fri 05:23:20 PM 26.2156 -97.4575 18° North 463 533 37,000  Level Houston Center
Fri 05:24:22 PM 26.3456 -97.4094 18° North 459 528 37,000  Level Houston Center
Fri 05:25:25 PM 26.4669 -97.3639 19° North 461 531 37,000  Level Houston Center
Fri 05:26:27 PM 26.5964 -97.3142 19° North 458 527 37,000  Level Houston Center
Fri 05:27:29 PM 26.7156 -97.2692 19° North 453 521 37,000  Level Houston Center
Fri 05:28:31 PM 26.8439 -97.2214 18° North 450 518 37,000 -48 Level Houston Center
Fri 05:29:33 PM 26.9597 -97.1781 18° North 451 519 36,900  Descending Houston Center
Fri 05:30:35 PM 27.0783 -97.1325 19° North 451 519 37,000 48 Climbing Houston Center
Fri 05:31:37 PM 27.1981 -97.0856 19° North 455 524 37,000  Level Houston Center
Fri 05:32:39 PM 27.3175 -97.0400 19° North 455 524 37,000  Level Houston Center
Fri 05:33:41 PM 27.4583 -96.9864 19° North 455 524 37,000  Level Houston Center
Fri 05:34:44 PM 27.5789 -96.9400 19° North 457 526 37,000  Level Houston Center
Fri 05:35:46 PM 27.6994 -96.8936 19° North 458 527 37,000 -48 Level Houston Center
Fri 05:36:48 PM 27.8194 -96.8458 19° North 458 527 36,900  Descending Houston Center
Fri 05:37:51 PM 27.9397 -96.8006 18° North 457 526 37,000 48 Climbing Houston Center
Fri 05:38:52 PM 28.0836 -96.7431 19° North 456 525 37,000 -293 Level Houston Center
Fri 05:39:54 PM 28.2039 -96.6972 19° North 457 526 36,400 -1,306 Descending Houston Center
Fri 05:40:56 PM 28.3250 -96.6506 19° North 459 528 34,300 -2,129 Descending Houston Center
Fri 05:41:58 PM 28.4456 -96.6028 19° North 460 529 32,000 -2,323 Descending Houston Center
Fri 05:43:00 PM 28.5644 -96.5564 19° North 456 525 29,500 -2,419 Descending Houston Center
Fri 05:44:02 PM 28.6811 -96.5108 19° North 447 514 27,000 -2,613 Descending Houston Center
Fri 05:45:04 PM 28.8222 -96.4553 19° North 448 516 24,100 -2,371 Descending Houston Center
Fri 05:46:06 PM 28.9375 -96.4089 19° North 444 511 22,100 -1,984 Descending Houston Center
Fri 05:47:08 PM 29.0475 -96.3661 19° North 429 494 20,000 -2,226 Descending Houston Center
Fri 05:48:10 PM 29.1556 -96.3231 19° North 418 481 17,500 -2,727 Descending Houston Center
Fri 05:48:14 PM 29.1783 -96.3153 17° North 415 478 17,000 -2,516 Descending Houston Center
Fri 05:49:12 PM 29.2622 -96.2808 20° North 412 474 14,900 -2,478 Descending Houston Center
Fri 05:49:46 PM 29.3306 -96.2531 20° North 385 443 13,200 -2,710 Descending Houston Center
Fri 05:50:14 PM 29.3808 -96.2342 18° North 382 440 12,100 -1,935 Descending Houston Center
Fri 05:50:48 PM 29.4319 -96.2131 20° North 346 398 11,200 -1,548 Descending Houston Center
Fri 05:51:16 PM 29.4697 -96.1975 20° North 348 400 10,500 -985 Descending Houston Center
Fri 05:51:55 PM 29.5275 -96.1758 18° North 330 380 10,100 -484 Descending Houston Center
Fri 05:52:18 PM 29.5497 -96.1519 43° Northeast 332 382 10,000  Descending Houston Center
Fri 05:52:44 PM 29.5742 -96.1083 57° Northeast 321 369 10,100  Climbing Houston Center
Fri 05:53:20 PM 29.5981 -96.0636 58° Northeast 327 376 10,000 -90 Descending Houston Center
Fri 05:53:51 PM 29.6281 -96.0036 60° Northeast 329 379 10,000  Level Houston Center
Fri 05:54:22 PM 29.6533 -95.9792 40° Northeast 323 372 10,000 -581 Level Houston Center
Fri 05:54:53 PM 29.6975 -95.9572 23° Northeast 267 307 9,400 -1,161 Descending Houston Center
Fri 05:55:24 PM 29.7253 -95.9447 21° North 283 326 8,800 -1,418 Descending Houston Center
Fri 05:55:48 PM 29.7639 -95.9256 23° Northeast 281 323 8,100 -1,355 Descending Houston Center
Fri 05:56:26 PM 29.7900 -95.8997 41° Northeast 274 315 7,400 -1,082 Descending Houston Center
Fri 05:56:49 PM 29.8131 -95.8622 55° Northeast 266 306 7,000 -387 Descending Houston Center
Fri 05:57:28 PM 29.8317 -95.8278 58° Northeast 268 308 7,000 -393 Level Houston Center
Fri 05:57:50 PM 29.8528 -95.7903 57° Northeast 266 306 6,600 -1,161 Descending Houston Center
Fri 05:58:30 PM 29.8803 -95.7406 57° Northeast 268 308 5,800 -1,279 Descending Houston Center
Fri 05:58:51 PM 29.8925 -95.7181 58° Northeast 269 310 5,300 -1,238 Descending Houston Center
Fri 05:59:33 PM 29.9206 -95.6703 56° Northeast 265 305 4,500 -1,279 Descending Houston Center
Fri 05:59:52 PM 29.9364 -95.6431 56° Northeast 258 297 4,000 -1,120 Descending Houston Center
Fri 06:00:48 PM 29.9706 -95.5789 58° Northeast 254 292 3,100 -577 Descending Houston Center
Fri 06:01:36 PM 29.9939 -95.5297 61° Northeast 256 295 3,000 -627 Descending Houston Center
Fri 06:01:55 PM 29.9928 -95.4989 92° East 241 277 2,400 -1,161 Descending Houston Center
Fri 06:02:38 PM 29.9942 -95.4539 88° East 244 281 1,800 -984 Descending Houston Center
Fri 06:02:56 PM 29.9928 -95.4314 94° East 172 198 1,400 -774 Descending Houston Center
Fri 06:03:40 PM 29.9942 -95.4028 87° East 195 224 1,000 -787 Descending Houston Center
Fri 06:03:57 PM 29.9928 -95.3856 95° East 131 151 600 -581 Descending Houston Center
Fri 06:04:42 PM 29.9939 -95.3581 87° East 157 181 400 -267 Descending Houston Center

Login

Don't have an account? Register now (free) for customized features, flight alerts, and more!